Time;durP1;ratioP1;P1;durP2;ratioP2;P2;SDS_P1;SDS_P2;PMS_P1;PMS_P2;Temp;Humidity;BMP_temperature;BMP_pressure;BME280_temperature;BME280_humidity;BME280_pressure;Samples;Min_cycle;Max_cycle;Signal;HPM_P1;HPM_P2
2022/01/31 00:01:26;;;;;;;36.17;14.80;;;;;;;-2.89;88.54;94222.50;5009168;28;20038;-60
2022/01/31 00:03:52;;;;;;;35.50;14.23;;;;;;;-3.09;89.36;94218.63;5008644;28;20044;-59
2022/01/31 00:06:19;;;;;;;56.08;17.27;;;;;;;-2.92;89.38;94213.19;5006803;28;20041;-59
2022/01/31 00:08:46;;;;;;;55.17;16.63;;;;;;;-2.75;88.64;94203.50;5012080;28;20483;-60
2022/01/31 00:11:13;;;;;;;29.67;12.82;;;;;;;-2.67;88.50;94194.59;5027845;28;20047;-60
2022/01/31 00:13:44;;;;;;;28.70;11.50;;;;;;;-2.60;88.67;94186.78;5027121;28;20034;-61
2022/01/31 00:16:20;;;;;;;23.77;11.05;;;;;;;-2.48;88.72;94169.97;5027470;28;20042;-60
2022/01/31 00:18:47;;;;;;;25.15;11.38;;;;;;;-2.31;89.02;94164.50;5028113;28;20211;-60
2022/01/31 00:21:14;;;;;;;32.47;11.55;;;;;;;-2.22;88.86;94150.97;5026540;28;20647;-60
2022/01/31 00:23:40;;;;;;;35.08;12.90;;;;;;;-2.43;88.83;94148.28;5014797;28;20048;-59
2022/01/31 00:26:07;;;;;;;21.57;9.60;;;;;;;-2.57;89.20;94135.09;5007313;28;20062;-60
2022/01/31 00:28:34;;;;;;;47.53;15.80;;;;;;;-2.60;89.81;94133.06;5007334;28;20038;-59
2022/01/31 00:31:00;;;;;;;30.30;10.90;;;;;;;-2.70;90.28;94130.75;5007880;28;20439;-59
2022/01/31 00:33:27;;;;;;;71.35;18.27;;;;;;;-2.64;90.41;94114.13;5008567;28;20044;-60
2022/01/31 00:35:54;;;;;;;72.88;18.08;;;;;;;-2.53;90.60;94109.16;5008337;28;20065;-59
2022/01/31 00:38:21;;;;;;;54.03;15.00;;;;;;;-2.48;90.19;94100.88;5006676;28;20033;-60
2022/01/31 00:40:47;;;;;;;36.63;11.98;;;;;;;-2.26;90.60;94113.19;5010122;28;20048;-60
2022/01/31 00:43:16;;;;;;;28.60;10.25;;;;;;;-2.14;89.79;94109.78;5011790;28;20080;-60
2022/01/31 00:45:46;;;;;;;34.60;12.95;;;;;;;-2.63;90.56;94115.72;5011811;28;20248;-60
2022/01/31 00:48:19;;;;;;;38.08;12.70;;;;;;;-2.83;92.41;94108.41;5010123;28;20675;-59
2022/01/31 00:50:47;;;;;;;29.33;11.50;;;;;;;-2.56;91.39;94106.34;5012039;28;20417;-61
2022/01/31 00:53:14;;;;;;;24.42;10.80;;;;;;;-2.65;91.57;94107.19;5011689;28;20055;-60
2022/01/31 00:55:41;;;;;;;24.33;11.35;;;;;;;-2.36;90.98;94104.75;5012156;28;20060;-60
2022/01/31 00:58:08;;;;;;;24.50;9.77;;;;;;;-2.29;90.21;94084.31;5010973;28;20068;-59
2022/01/31 01:00:35;;;;;;;25.27;10.45;;;;;;;-2.34;90.48;94105.22;5011732;28;20042;-60
2022/01/31 01:03:03;;;;;;;24.37;9.80;;;;;;;-2.32;89.78;94121.81;5011026;28;20037;-60
2022/01/31 01:05:30;;;;;;;22.15;9.57;;;;;;;-2.31;89.88;94109.94;5011706;28;20053;-59
2022/01/31 01:07:57;;;;;;;22.83;9.27;;;;;;;-2.36;90.42;94102.84;5009570;28;20255;-60
2022/01/31 01:10:24;;;;;;;26.58;9.95;;;;;;;-2.27;90.64;94108.19;5027473;28;20052;-59
2022/01/31 01:12:51;;;;;;;23.25;9.38;;;;;;;-2.22;89.76;94089.91;5031173;28;20060;-59
2022/01/31 01:15:17;;;;;;;19.93;8.70;;;;;;;-2.21;89.37;94085.34;5030567;28;20053;-61
2022/01/31 01:17:45;;;;;;;21.48;8.93;;;;;;;-2.29;89.85;94083.53;5029818;28;20052;-60
2022/01/31 01:20:15;;;;;;;21.38;9.27;;;;;;;-2.24;89.87;94073.34;5028965;28;20554;-59
2022/01/31 01:22:42;;;;;;;21.17;8.70;;;;;;;-2.24;89.49;94077.94;5031303;28;20072;-59
2022/01/31 01:25:10;;;;;;;22.70;10.50;;;;;;;-2.23;89.30;94079.50;5030297;28;20053;-60
2022/01/31 01:27:37;;;;;;;21.77;8.10;;;;;;;-2.22;89.94;94087.22;5029578;28;20053;-60
2022/01/31 01:30:05;;;;;;;21.10;8.38;;;;;;;-2.20;90.24;94076.16;5030295;28;20041;-61
2022/01/31 01:32:41;;;;;;;36.13;14.40;;;;;;;-2.05;90.14;94080.91;5030856;28;20049;-60
2022/01/31 01:35:08;;;;;;;19.17;8.55;;;;;;;-2.09;90.67;94071.94;5030318;28;20096;-62
2022/01/31 01:37:35;;;;;;;20.95;7.90;;;;;;;-1.97;90.13;94067.69;5031085;28;20110;-59
2022/01/31 01:40:02;;;;;;;15.93;6.87;;;;;;;-1.92;90.88;94048.69;5029008;28;20045;-60
2022/01/31 01:42:29;;;;;;;25.63;10.32;;;;;;;-1.92;90.17;94021.78;5019283;28;20064;-59
2022/01/31 01:44:56;;;;;;;19.38;7.93;;;;;;;-1.85;90.35;94012.06;5011543;28;20440;-61
2022/01/31 01:47:24;;;;;;;16.92;6.78;;;;;;;-1.70;90.72;93999.06;5006186;28;20046;-60
2022/01/31 01:49:53;;;;;;;16.30;6.72;;;;;;;-1.68;90.39;94012.97;5005235;28;20575;-62
2022/01/31 01:52:20;;;;;;;12.27;6.40;;;;;;;-1.66;89.84;94000.72;5009282;28;20076;-60
2022/01/31 01:54:48;;;;;;;15.95;6.65;;;;;;;-1.71;89.74;94013.63;5010925;28;20056;-61
2022/01/31 01:57:17;;;;;;;14.88;6.75;;;;;;;-1.76;89.60;94020.00;5009941;28;20046;-60
2022/01/31 01:59:44;;;;;;;16.60;6.63;;;;;;;-1.77;89.60;94013.06;5025881;28;20406;-61
2022/01/31 02:02:11;;;;;;;16.92;7.45;;;;;;;-1.81;89.38;93993.34;5009809;28;20394;-60
2022/01/31 02:04:37;;;;;;;18.77;7.13;;;;;;;-1.73;89.52;93988.94;5009257;28;20042;-59
2022/01/31 02:07:04;;;;;;;17.63;7.60;;;;;;;-1.71;89.29;93982.13;5008521;28;20045;-60
2022/01/31 02:09:41;;;;;;;19.55;8.10;;;;;;;-1.88;89.66;93976.97;5020100;28;20041;-60
2022/01/31 02:12:08;;;;;;;20.52;9.48;;;;;;;-2.06;90.81;93965.63;5028284;28;20051;-59
2022/01/31 02:14:35;;;;;;;17.92;8.32;;;;;;;-2.02;91.28;93956.53;5030179;28;20037;-61
2022/01/31 02:17:02;;;;;;;17.00;7.60;;;;;;;-1.95;90.60;93941.75;5029300;28;20045;-59
2022/01/31 02:19:29;;;;;;;18.08;7.82;;;;;;;-1.88;90.18;93926.63;5030328;28;20037;-60
2022/01/31 02:21:56;;;;;;;23.83;9.00;;;;;;;-1.84;89.88;93913.31;5028352;28;20060;-60
2022/01/31 02:24:23;;;;;;;21.02;8.88;;;;;;;-1.78;89.68;93925.41;5029140;28;20402;-59
2022/01/31 02:26:50;;;;;;;19.80;7.78;;;;;;;-1.76;89.89;93925.84;5029932;28;20048;-60
2022/01/31 02:29:16;;;;;;;18.87;7.50;;;;;;;-1.68;89.30;93933.03;5029317;28;20049;-59
2022/01/31 02:31:45;;;;;;;20.27;7.45;;;;;;;-1.65;89.47;93915.41;5030022;28;20405;-59
2022/01/31 02:34:13;;;;;;;18.15;6.90;;;;;;;-1.61;88.98;93905.53;5029250;28;20455;-60
2022/01/31 02:36:40;;;;;;;20.13;7.68;;;;;;;-1.73;89.45;93892.09;5028650;28;20095;-60
2022/01/31 02:39:07;;;;;;;19.40;8.23;;;;;;;-1.89;89.96;93873.97;5028960;28;20041;-59
2022/01/31 02:41:45;;;;;;;18.30;7.33;;;;;;;-1.63;89.30;93862.84;5025723;28;20121;-59
2022/01/31 02:44:16;;;;;;;15.15;6.53;;;;;;;-1.57;89.08;93871.47;5003667;28;20053;-59
2022/01/31 02:46:50;;;;;;;17.38;6.93;;;;;;;-1.48;88.50;93879.41;5010533;28;20050;-61
2022/01/31 02:49:20;;;;;;;15.68;7.00;;;;;;;-1.41;88.67;93879.59;5008188;28;20054;-59
2022/01/31 02:51:56;;;;;;;15.20;7.30;;;;;;;-1.32;88.04;93849.88;5008628;28;20424;-60
2022/01/31 02:54:24;;;;;;;16.70;6.37;;;;;;;-1.48;88.10;93849.81;5009215;28;20493;-59
2022/01/31 02:56:51;;;;;;;12.93;5.50;;;;;;;-1.39;87.82;93855.81;5009918;28;20191;-60
2022/01/31 02:59:18;;;;;;;15.00;5.57;;;;;;;-1.31;87.82;93856.81;5009055;28;20044;-60
2022/01/31 03:01:45;;;;;;;14.18;5.43;;;;;;;-1.16;87.49;93858.00;5009753;28;20052;-60
2022/01/31 03:04:13;;;;;;;14.25;5.50;;;;;;;-1.11;86.35;93865.81;5008480;28;20050;-59
2022/01/31 03:06:42;;;;;;;12.07;3.90;;;;;;;-1.00;85.72;93861.53;5008107;28;20471;-59
2022/01/31 03:09:09;;;;;;;13.20;4.28;;;;;;;-0.85;84.72;93860.75;5015526;28;20115;-59
2022/01/31 03:11:36;;;;;;;14.23;5.70;;;;;;;-0.93;85.12;93871.69;5027828;28;20518;-61
2022/01/31 03:14:03;;;;;;;11.68;5.35;;;;;;;-0.97;85.70;93871.59;5028420;28;20049;-59
2022/01/31 03:16:29;;;;;;;16.85;5.97;;;;;;;-0.92;85.46;93870.59;5029171;28;20148;-60
2022/01/31 03:18:56;;;;;;;12.93;5.83;;;;;;;-1.06;86.26;93860.22;5027603;28;20046;-63
2022/01/31 03:21:23;;;;;;;14.63;5.57;;;;;;;-0.95;85.89;93855.09;5028299;28;20738;-58
2022/01/31 03:23:50;;;;;;;13.10;5.10;;;;;;;-0.99;85.23;93835.38;5011393;28;20049;-59
2022/01/31 03:26:18;;;;;;;20.45;6.50;;;;;;;-0.92;84.92;93835.56;5028139;28;20050;-58
2022/01/31 03:28:44;;;;;;;13.40;5.22;;;;;;;-0.82;84.67;93837.75;5028918;28;20041;-58
2022/01/31 03:31:12;;;;;;;11.73;4.10;;;;;;;-0.63;83.79;93820.91;5028208;28;20045;-59
2022/01/31 03:33:39;;;;;;;10.40;4.20;;;;;;;-0.60;83.12;93809.44;5028805;28;20053;-59
2022/01/31 03:36:06;;;;;;;13.15;4.15;;;;;;;-0.59;83.50;93813.69;5027990;28;20052;-59
2022/01/31 03:38:34;;;;;;;15.80;4.45;;;;;;;-0.50;82.72;93822.41;5029115;28;20041;-59
2022/01/31 03:41:01;;;;;;;11.63;4.13;;;;;;;-0.47;82.45;93805.53;5028054;28;20095;-61
2022/01/31 03:43:28;;;;;;;8.80;3.60;;;;;;;-0.45;81.54;93791.69;5000886;28;20041;-59
2022/01/31 03:45:55;;;;;;;11.25;3.70;;;;;;;-0.41;81.43;93796.03;5004866;28;20054;-60
2022/01/31 03:48:24;;;;;;;10.23;3.83;;;;;;;-0.37;81.28;93774.56;5007462;28;21067;-59
2022/01/31 03:50:51;;;;;;;10.45;3.88;;;;;;;-0.46;81.53;93765.88;5009088;28;20056;-59
2022/01/31 03:53:17;;;;;;;9.95;4.03;;;;;;;-0.51;81.49;93758.84;5006955;28;20817;-60
2022/01/31 03:55:44;;;;;;;12.30;4.10;;;;;;;-0.52;81.85;93754.59;5009023;28;20447;-60
2022/01/31 03:58:11;;;;;;;11.02;4.60;;;;;;;-0.48;81.39;93760.06;5006665;28;20060;-59
2022/01/31 04:00:38;;;;;;;11.20;3.92;;;;;;;-0.39;81.31;93776.06;5008682;28;20056;-60
2022/01/31 04:03:05;;;;;;;11.93;4.03;;;;;;;-0.37;81.38;93771.09;5008054;28;20052;-59
2022/01/31 04:05:32;;;;;;;10.43;3.83;;;;;;;-0.27;81.02;93757.06;5007525;28;20042;-59
2022/01/31 04:07:59;;;;;;;11.33;4.37;;;;;;;-0.33;80.66;93729.59;5008129;28;20168;-64
2022/01/31 04:10:27;;;;;;;12.43;3.65;;;;;;;-0.36;80.50;93705.25;5025902;28;20092;-60
2022/01/31 04:12:53;;;;;;;10.55;4.30;;;;;;;-0.33;80.78;93705.31;5028480;28;20048;-58
2022/01/31 04:15:20;;;;;;;9.43;3.92;;;;;;;-0.31;79.94;93713.06;5027342;28;20049;-59
2022/01/31 04:17:47;;;;;;;9.32;3.65;;;;;;;-0.32;80.30;93703.41;5032600;28;20045;-59
2022/01/31 04:20:15;;;;;;;11.83;3.97;;;;;;;-0.36;81.05;93716.81;5031776;28;20060;-59
2022/01/31 04:22:45;;;;;;;10.10;4.57;;;;;;;-0.24;79.97;93708.63;5032261;28;20049;-59
2022/01/31 04:25:17;;;;;;;11.02;3.70;;;;;;;-0.15;79.09;93713.03;5031482;28;20395;-60
2022/01/31 04:27:46;;;;;;;9.98;3.20;;;;;;;-0.18;79.51;93717.22;5032504;28;20367;-60
2022/01/31 04:30:14;;;;;;;10.85;3.53;;;;;;;-0.11;78.61;93727.38;5030050;28;20068;-59
2022/01/31 04:32:40;;;;;;;9.33;3.53;;;;;;;-0.07;78.66;93714.75;5032054;28;20045;-59
2022/01/31 04:35:07;;;;;;;10.95;3.65;;;;;;;0.06;78.71;93718.09;5030261;28;20041;-58
2022/01/31 04:37:34;;;;;;;7.45;3.47;;;;;;;0.10;78.50;93727.84;5032167;28;20491;-59
2022/01/31 04:40:01;;;;;;;10.00;3.17;;;;;;;0.17;78.65;93740.69;5031028;28;20114;-64
2022/01/31 04:42:27;;;;;;;13.30;4.20;;;;;;;0.06;77.91;93726.19;5019196;28;20046;-61
2022/01/31 04:45:01;;;;;;;8.87;3.80;;;;;;;0.21;77.63;93721.88;5009959;28;20376;-60
2022/01/31 04:47:28;;;;;;;11.45;3.60;;;;;;;0.22;77.94;93718.81;5012437;28;20042;-59
2022/01/31 04:49:54;;;;;;;11.15;4.10;;;;;;;-0.03;78.37;93719.06;5012019;28;20038;-59
2022/01/31 04:52:21;;;;;;;10.25;3.30;;;;;;;0.01;78.83;93696.81;5011469;28;20050;-60
2022/01/31 04:54:48;;;;;;;10.05;3.50;;;;;;;0.22;78.52;93691.03;5011897;28;20041;-60
2022/01/31 04:57:16;;;;;;;10.90;3.80;;;;;;;0.32;78.08;93701.28;5011183;28;20049;-60
2022/01/31 04:59:44;;;;;;;10.50;3.90;;;;;;;0.19;77.94;93698.72;5010769;28;20038;-59
2022/01/31 05:02:11;;;;;;;13.60;3.65;;;;;;;0.25;78.10;93688.44;5011001;28;20056;-59
2022/01/31 05:04:38;;;;;;;10.90;3.22;;;;;;;0.35;77.90;93676.28;5012048;28;20046;-59
2022/01/31 05:07:04;;;;;;;9.57;3.63;;;;;;;0.35;77.25;93670.88;5010967;28;20061;-59
2022/01/31 05:09:31;;;;;;;9.37;2.90;;;;;;;0.39;77.71;93664.41;5021755;28;20037;-60
2022/01/31 05:11:59;;;;;;;7.90;2.85;;;;;;;0.42;77.55;93657.50;5029690;28;20045;-60
2022/01/31 05:14:25;;;;;;;9.40;3.40;;;;;;;0.42;77.89;93646.69;5031290;28;20056;-61
2022/01/31 05:16:52;;;;;;;7.55;2.70;;;;;;;0.46;77.84;93633.28;5031239;28;20038;-60
2022/01/31 05:19:19;;;;;;;7.60;2.97;;;;;;;0.45;78.48;93627.09;5029125;28;20042;-61
2022/01/31 05:21:46;;;;;;;9.60;3.10;;;;;;;0.42;78.68;93621.63;5031490;28;20068;-61
2022/01/31 05:24:12;;;;;;;11.18;3.15;;;;;;;0.46;78.00;93617.84;5030528;28;20046;-60
2022/01/31 05:26:39;;;;;;;9.70;3.28;;;;;;;0.49;78.46;93632.56;5030980;28;20448;-60
2022/01/31 05:29:06;;;;;;;9.20;3.10;;;;;;;0.45;78.30;93623.63;5029286;28;20041;-59
2022/01/31 05:31:32;;;;;;;7.50;3.25;;;;;;;0.56;78.43;93616.50;5031226;28;20038;-60
2022/01/31 05:33:59;;;;;;;8.30;3.20;;;;;;;0.52;78.52;93604.84;5030429;28;20056;-60
2022/01/31 05:36:26;;;;;;;9.00;3.55;;;;;;;0.57;78.45;93593.75;5029497;28;20038;-61
2022/01/31 05:38:53;;;;;;;8.90;3.33;;;;;;;0.64;78.42;93585.75;5030787;28;20041;-60
2022/01/31 05:41:20;;;;;;;8.35;3.00;;;;;;;0.74;77.71;93576.28;5028916;28;20048;-60
2022/01/31 05:43:47;;;;;;;9.02;3.05;;;;;;;0.76;77.77;93582.09;5030678;28;20081;-60
2022/01/31 05:46:14;;;;;;;12.43;4.80;;;;;;;0.77;77.79;93578.28;5030132;28;20103;-60
2022/01/31 05:48:41;;;;;;;9.63;3.45;;;;;;;0.78;78.42;93569.78;5030813;28;20148;-60
2022/01/31 05:51:15;;;;;;;12.98;4.60;;;;;;;0.70;78.87;93556.53;5029871;28;20524;-61
2022/01/31 05:53:43;;;;;;;9.07;4.13;;;;;;;0.71;79.31;93553.50;5030648;28;20461;-60
2022/01/31 05:56:12;;;;;;;10.70;3.70;;;;;;;0.76;79.08;93563.97;5029788;28;20045;-60
2022/01/31 05:58:39;;;;;;;6.47;2.90;;;;;;;0.77;79.09;93546.63;5030424;28;20041;-61
2022/01/31 06:01:06;;;;;;;11.15;4.65;;;;;;;0.77;79.29;93532.34;5021016;28;20467;-64
2022/01/31 06:03:34;;;;;;;10.23;4.05;;;;;;;0.79;79.96;93541.66;5010416;28;20111;-60
2022/01/31 06:06:01;;;;;;;12.18;3.55;;;;;;;0.82;80.22;93540.13;5009740;28;20384;-61
2022/01/31 06:08:28;;;;;;;7.00;2.80;;;;;;;0.85;80.10;93520.53;5011466;28;20040;-60
2022/01/31 06:10:55;;;;;;;8.37;2.87;;;;;;;0.90;80.80;93520.19;5030240;28;20120;-60
2022/01/31 06:13:28;;;;;;;7.53;2.92;;;;;;;1.00;80.31;93511.47;5029663;28;20041;-59
2022/01/31 06:15:55;;;;;;;25.42;8.07;;;;;;;1.05;80.39;93533.91;5029929;28;20049;-60
2022/01/31 06:18:22;;;;;;;9.15;3.10;;;;;;;1.09;80.64;93523.94;5012675;28;20049;-60
2022/01/31 06:20:48;;;;;;;8.00;2.83;;;;;;;1.02;81.08;93518.44;5010289;28;20041;-61
2022/01/31 06:23:15;;;;;;;8.00;3.53;;;;;;;1.04;80.81;93511.50;5009459;28;20041;-61
2022/01/31 06:25:43;;;;;;;5.68;2.55;;;;;;;1.10;80.68;93501.19;5008890;28;20061;-60
2022/01/31 06:28:10;;;;;;;5.03;2.45;;;;;;;1.15;80.36;93500.88;5007937;28;20053;-59
2022/01/31 06:30:37;;;;;;;7.97;2.63;;;;;;;1.14;81.02;93502.00;5008942;28;20034;-61
2022/01/31 06:33:04;;;;;;;5.43;2.63;;;;;;;1.14;80.50;93491.97;5009767;28;20053;-61
2022/01/31 06:35:31;;;;;;;6.93;2.50;;;;;;;1.11;81.22;93502.75;5008476;28;20042;-60
2022/01/31 06:37:57;;;;;;;7.03;2.60;;;;;;;1.10;81.42;93506.56;5008884;28;20046;-57
2022/01/31 06:40:24;;;;;;;5.50;2.80;;;;;;;1.18;81.09;93484.69;5008371;28;20482;-61
2022/01/31 06:42:51;;;;;;;7.80;2.85;;;;;;;1.21;81.00;93491.28;5009931;28;20034;-60
2022/01/31 06:45:17;;;;;;;7.50;3.30;;;;;;;1.24;81.17;93487.06;5007565;28;20050;-61
2022/01/31 06:47:44;;;;;;;8.40;3.40;;;;;;;1.30;80.22;93491.00;5009826;28;20049;-62
2022/01/31 06:50:11;;;;;;;8.25;3.08;;;;;;;1.23;80.98;93490.91;5007855;28;20042;-61
2022/01/31 06:52:38;;;;;;;8.90;3.25;;;;;;;1.29;80.45;93465.91;5009807;28;20048;-60
2022/01/31 06:55:07;;;;;;;13.27;4.40;;;;;;;1.37;79.39;93475.66;5009297;28;20056;-61
2022/01/31 06:57:35;;;;;;;8.73;3.45;;;;;;;1.38;79.68;93468.31;5009518;28;20053;-60
2022/01/31 07:00:07;;;;;;;9.27;3.20;;;;;;;1.40;79.18;93461.41;5009263;28;20054;-61
2022/01/31 07:02:34;;;;;;;9.15;3.58;;;;;;;1.39;79.47;93467.97;5008765;28;20037;-61
2022/01/31 07:05:01;;;;;;;8.32;3.28;;;;;;;1.46;79.26;93453.75;5009574;28;20046;-59
2022/01/31 07:07:28;;;;;;;10.70;3.40;;;;;;;1.48;78.86;93461.50;5009254;28;20038;-61
2022/01/31 07:09:55;;;;;;;7.38;3.10;;;;;;;1.47;78.75;93460.72;4996998;28;20068;-60
2022/01/31 07:12:29;;;;;;;8.03;3.00;;;;;;;1.45;78.90;93454.91;5007186;28;20041;-60
2022/01/31 07:14:56;;;;;;;7.85;3.40;;;;;;;1.38;80.40;93455.56;5009214;28;20056;-60
2022/01/31 07:17:23;;;;;;;12.32;3.95;;;;;;;1.38;81.32;93444.75;5008157;28;22728;-61
2022/01/31 07:19:50;;;;;;;12.00;3.67;;;;;;;1.31;81.87;93455.50;5007951;28;20417;-60
2022/01/31 07:22:19;;;;;;;8.18;3.60;;;;;;;1.27;82.12;93438.47;5008577;28;21295;-60
2022/01/31 07:25:00;;;;;;;9.27;3.20;;;;;;;1.16;83.04;93451.06;5009323;28;20042;-60
2022/01/31 07:27:27;;;;;;;10.23;2.92;;;;;;;1.11;83.43;93457.56;5007795;28;20526;-60
2022/01/31 07:29:54;;;;;;;9.10;4.00;;;;;;;1.07;85.23;93440.53;5008579;28;20044;-60
2022/01/31 07:32:21;;;;;;;6.47;3.00;;;;;;;1.03;85.16;93437.00;5008083;28;20042;-61
2022/01/31 07:34:53;;;;;;;6.68;2.75;;;;;;;0.96;86.08;93442.31;5008673;28;20095;-61
2022/01/31 07:37:20;;;;;;;14.63;4.23;;;;;;;0.93;87.16;93430.31;5006702;28;20054;-61
2022/01/31 07:39:46;;;;;;;12.85;4.60;;;;;;;0.83;87.18;93432.88;5008806;28;20042;-61
2022/01/31 07:42:13;;;;;;;40.75;11.15;;;;;;;0.77;87.52;93433.19;5006644;28;20136;-60
2022/01/31 07:44:40;;;;;;;18.52;5.90;;;;;;;0.74;88.39;93442.00;5008834;28;20107;-61
2022/01/31 07:47:07;;;;;;;15.68;4.50;;;;;;;0.78;87.91;93428.56;5008493;28;20052;-61
2022/01/31 07:49:34;;;;;;;14.70;5.30;;;;;;;0.75;89.25;93429.31;5007843;28;20475;-60
2022/01/31 07:52:02;;;;;;;12.63;4.40;;;;;;;0.69;89.37;93428.06;5008301;28;20052;-61
2022/01/31 07:54:29;;;;;;;15.07;6.47;;;;;;;0.74;89.74;93428.50;5008580;28;20115;-60
2022/01/31 07:56:57;;;;;;;6.30;2.85;;;;;;;0.76;89.74;93437.03;5008537;28;20438;-61
2022/01/31 07:59:43;;;;;;;7.75;3.50;;;;;;;0.74;90.00;93427.75;5007992;28;20041;-61
2022/01/31 08:02:10;;;;;;;5.17;2.20;;;;;;;0.78;89.95;93434.75;5005576;28;20488;-60
2022/01/31 08:04:37;;;;;;;17.15;5.65;;;;;;;0.82;89.71;93432.09;5009144;28;20091;-61
2022/01/31 08:07:04;;;;;;;14.15;3.97;;;;;;;0.90;89.86;93438.38;5008135;28;20104;-60
2022/01/31 08:09:30;;;;;;;12.40;4.68;;;;;;;0.95;88.80;93446.16;5018459;28;20045;-61
2022/01/31 08:11:57;;;;;;;17.80;4.47;;;;;;;0.93;88.57;93443.84;5026692;28;20125;-58
2022/01/31 08:14:24;;;;;;;11.33;4.30;;;;;;;0.87;89.36;93436.41;5027114;28;20044;-62
2022/01/31 08:16:51;;;;;;;6.00;2.63;;;;;;;0.82;89.44;93425.91;5028088;28;20045;-61
2022/01/31 08:19:17;;;;;;;7.65;3.75;;;;;;;0.87;89.19;93437.19;5027682;28;20498;-60
2022/01/31 08:22:04;;;;;;;7.43;2.40;;;;;;;0.88;90.03;93425.22;5026477;28;20483;-61
2022/01/31 08:24:31;;;;;;;6.03;2.28;;;;;;;0.91;89.81;93421.03;5026626;28;20068;-60
2022/01/31 08:26:58;;;;;;;3.37;1.50;;;;;;;0.83;89.82;93430.19;5027807;28;20042;-58
2022/01/31 08:29:35;;;;;;;4.88;1.77;;;;;;;0.84;89.97;93426.34;5027931;28;20044;-61
2022/01/31 08:32:14;;;;;;;8.95;4.32;;;;;;;0.79;90.07;93422.81;5027435;28;20048;-61
2022/01/31 08:37:28;;;;;;;5.00;2.15;;;;;;;0.85;90.40;93422.50;5027332;28;21005;-60
2022/01/31 08:39:54;;;;;;;2.77;1.20;;;;;;;0.94;90.39;93423.00;5028232;28;20042;-60
2022/01/31 08:42:21;;;;;;;5.85;1.90;;;;;;;0.87;90.10;93414.81;5027281;28;20393;-61
2022/01/31 08:44:49;;;;;;;6.40;2.20;;;;;;;1.00;90.23;93418.81;5028331;28;20042;-61
2022/01/31 08:47:16;;;;;;;6.82;1.73;;;;;;;1.03;89.90;93418.09;5027388;28;20077;-61
2022/01/31 08:49:43;;;;;;;2.58;1.27;;;;;;;0.95;89.09;93422.63;5028119;28;20159;-61
2022/01/31 08:52:10;;;;;;;4.50;1.90;;;;;;;1.03;89.37;93428.09;5027770;28;20052;-61
2022/01/31 08:54:37;;;;;;;2.95;1.30;;;;;;;0.99;89.00;93428.84;5027527;28;20041;-60
2022/01/31 08:57:04;;;;;;;5.00;2.30;;;;;;;1.04;89.23;93432.38;5026048;28;20046;-61
2022/01/31 08:59:32;;;;;;;8.32;2.80;;;;;;;1.09;88.67;93430.13;5027678;28;20397;-61
2022/01/31 09:02:06;;;;;;;18.65;7.20;;;;;;;1.28;87.98;93428.44;5012400;28;20042;-62
2022/01/31 09:04:47;;;;;;;7.47;3.37;;;;;;;1.46;87.40;93426.69;5012327;28;20079;-61
2022/01/31 09:07:20;;;;;;;9.73;3.83;;;;;;;1.52;87.29;93436.03;5010146;28;20053;-61
2022/01/31 09:09:50;;;;;;;10.68;4.15;;;;;;;1.55;86.06;93439.91;5023279;28;20038;-60
2022/01/31 09:12:17;;;;;;;4.13;1.48;;;;;;;1.58;85.96;93431.84;5030921;28;20530;-61
2022/01/31 09:14:45;;;;;;;2.03;1.00;;;;;;;1.58;85.44;93448.06;5031434;28;20048;-61
2022/01/31 09:17:12;;;;;;;5.77;1.30;;;;;;;1.55;86.40;93442.63;5030736;28;20045;-62
2022/01/31 09:19:39;;;;;;;9.88;2.25;;;;;;;1.51;86.58;93442.59;5030966;28;20095;-61
2022/01/31 09:22:06;;;;;;;4.57;1.40;;;;;;;1.48;86.87;93446.03;5030589;28;20041;-62
2022/01/31 09:24:38;;;;;;;3.33;1.67;;;;;;;1.55;86.69;93453.44;5031078;28;20052;-61
2022/01/31 09:27:10;;;;;;;5.85;1.75;;;;;;;1.39;87.47;93456.38;5030674;28;20056;-61
2022/01/31 09:29:39;;;;;;;2.97;1.70;;;;;;;1.74;85.85;93447.09;5031016;28;20044;-62
2022/01/31 09:32:07;;;;;;;3.22;1.52;;;;;;;1.72;86.03;93455.56;5030709;28;20037;-61
2022/01/31 09:34:33;;;;;;;4.00;2.00;;;;;;;1.70;85.95;93448.97;5029582;28;20053;-61
2022/01/31 09:37:00;;;;;;;3.10;1.20;;;;;;;1.66;86.12;93461.69;5030594;28;20049;-61
2022/01/31 09:39:27;;;;;;;2.40;1.20;;;;;;;1.49;83.95;93436.78;5030811;28;20132;-61
2022/01/31 09:41:59;;;;;;;2.60;1.33;;;;;;;1.56;86.53;93453.06;5030307;28;20055;-61
2022/01/31 09:44:46;;;;;;;3.72;1.50;;;;;;;1.76;85.96;93471.84;5030676;28;20482;-63
2022/01/31 09:49:45;;;;;;;4.50;1.92;;;;;;;1.59;86.40;93481.34;5030940;28;20489;-61
2022/01/31 09:52:13;;;;;;;2.83;1.25;;;;;;;1.39;85.45;93478.00;5030361;28;20060;-62
2022/01/31 09:54:40;;;;;;;4.83;1.30;;;;;;;1.64;86.29;93488.34;5030521;28;20536;-61
2022/01/31 09:57:07;;;;;;;3.22;1.13;;;;;;;1.29;86.72;93479.44;5030264;28;20107;-61
2022/01/31 09:59:34;;;;;;;2.50;1.20;;;;;;;1.72;84.98;93471.03;5029021;28;20045;-61
2022/01/31 10:02:08;;;;;;;3.05;1.05;;;;;;;1.73;83.62;93477.97;5012017;28;20084;-61
2022/01/31 10:04:36;;;;;;;4.40;1.42;;;;;;;1.45;83.19;93475.72;5011401;28;20044;-61
2022/01/31 10:07:03;;;;;;;2.70;1.10;;;;;;;1.69;83.69;93485.28;5010270;28;20046;-62
2022/01/31 10:09:32;;;;;;;2.42;1.00;;;;;;;2.08;81.90;93479.53;5020161;28;20041;-61
2022/01/31 10:12:09;;;;;;;2.80;1.65;;;;;;;1.93;81.24;93481.28;5029806;28;20041;-62
2022/01/31 10:17:42;;;;;;;2.80;1.23;;;;;;;1.90;80.86;93492.88;5027893;28;20049;-62
2022/01/31 10:20:17;;;;;;;2.60;1.13;;;;;;;2.05;81.58;93491.06;5029889;28;20049;-61
2022/01/31 10:22:46;;;;;;;2.97;1.08;;;;;;;1.86;82.03;93497.47;5030126;28;20049;-61
2022/01/31 10:25:16;;;;;;;3.50;1.45;;;;;;;1.49;81.52;93496.28;5029844;28;20505;-61
2022/01/31 10:28:11;;;;;;;4.78;1.50;;;;;;;1.47;82.95;93495.06;5029317;28;20047;-62
2022/01/31 10:30:38;;;;;;;4.95;1.73;;;;;;;1.63;83.52;93497.56;5029768;28;20044;-61
2022/01/31 10:33:09;;;;;;;4.37;1.80;;;;;;;1.52;83.84;93492.06;5029462;28;20043;-61
2022/01/31 10:35:38;;;;;;;3.00;1.23;;;;;;;1.18;82.97;93481.19;5029826;28;20037;-62
2022/01/31 10:38:11;;;;;;;5.80;1.60;;;;;;;1.49;82.76;93481.97;5029422;28;20056;-61
2022/01/31 10:44:16;;;;;;;2.80;1.40;;;;;;;3.01;77.28;93482.94;5028607;28;21692;-61
2022/01/31 10:52:26;;;;;;;4.05;1.50;;;;;;;3.51;73.82;93468.88;5028737;28;20038;-66
2022/01/31 10:54:53;;;;;;;3.30;1.40;;;;;;;4.52;70.45;93465.22;5029680;28;20045;-62
2022/01/31 10:57:22;;;;;;;2.75;1.10;;;;;;;5.57;66.67;93472.06;5029240;28;20049;-62
2022/01/31 10:59:55;;;;;;;2.60;1.00;;;;;;;4.77;67.08;93459.03;5029530;28;20063;-62
2022/01/31 11:02:25;;;;;;;2.78;1.10;;;;;;;4.09;71.19;93454.31;5008668;28;20095;-62
2022/01/31 11:04:52;;;;;;;2.35;1.17;;;;;;;4.04;69.64;93451.19;5010284;28;20480;-62
2022/01/31 11:07:25;;;;;;;2.42;1.15;;;;;;;4.06;70.36;93462.44;5009435;28;20103;-62
2022/01/31 11:09:53;;;;;;;3.42;1.30;;;;;;;4.13;69.19;93449.66;5022228;28;20071;-63
2022/01/31 11:12:23;;;;;;;4.90;1.20;;;;;;;6.77;60.37;93432.81;5028892;28;20102;-62
2022/01/31 11:14:56;;;;;;;6.28;1.23;;;;;;;8.45;57.40;93451.22;5029037;28;20475;-63
2022/01/31 11:17:24;;;;;;;4.68;1.75;;;;;;;11.57;49.94;93433.06;5027797;28;20829;-61
2022/01/31 11:20:00;;;;;;;3.83;1.20;;;;;;;13.38;42.70;93430.81;5028696;28;20431;-61
2022/01/31 11:22:33;;;;;;;3.13;1.20;;;;;;;9.59;47.50;93429.31;5028931;28;20114;-61
2022/01/31 11:25:15;;;;;;;3.10;1.40;;;;;;;11.74;45.69;93420.81;5028344;28;20072;-61
2022/01/31 11:27:51;;;;;;;4.22;1.27;;;;;;;12.32;43.08;93428.22;5028776;28;20057;-61
2022/01/31 11:30:19;;;;;;;5.25;1.90;;;;;;;9.16;47.75;93426.63;5028545;28;20049;-61
2022/01/31 11:32:47;;;;;;;3.03;1.20;;;;;;;12.48;42.47;93418.34;5028947;28;20053;-61
2022/01/31 11:35:14;;;;;;;2.83;1.40;;;;;;;13.56;41.54;93421.13;5028610;28;20045;-61
2022/01/31 11:37:41;;;;;;;3.90;1.50;;;;;;;13.66;39.79;93420.03;5028476;28;20045;-61
2022/01/31 11:40:10;;;;;;;4.63;1.95;;;;;;;11.93;43.54;93415.59;5028259;28;20046;-61
2022/01/31 11:42:42;;;;;;;2.85;1.30;;;;;;;9.77;47.28;93409.78;5028455;28;20525;-61
2022/01/31 11:45:15;;;;;;;3.33;1.40;;;;;;;9.74;48.58;93418.09;5027885;28;20042;-60
2022/01/31 11:47:45;;;;;;;3.88;1.58;;;;;;;10.00;48.63;93411.66;5028449;28;20049;-60
2022/01/31 11:50:16;;;;;;;3.50;1.30;;;;;;;13.04;42.19;93395.72;5028625;28;20051;-60
2022/01/31 11:53:00;;;;;;;3.28;1.40;;;;;;;12.06;42.43;93408.16;5026982;28;20038;-61
2022/01/31 11:55:33;;;;;;;3.72;1.55;;;;;;;14.13;40.29;93408.06;5027485;28;20147;-61
2022/01/31 11:58:00;;;;;;;3.90;1.58;;;;;;;10.15;43.87;93403.13;5028114;28;20068;-61